Time;durP1;ratioP1;P1;durP2;ratioP2;P2;SDS_P1;SDS_P2;PMS_P1;PMS_P2;Temp;Humidity;BMP_temperature;BMP_pressure;BME280_temperature;BME280_humidity;BME280_pressure;Samples;Min_cycle;Max_cycle;Signal;HPM_P1;HPM_P2
2022/03/23 00:01:49;;;;;;;146.05;79.70;;;;;;;-2.98;100.00;102618.97;4986305;28;20042;-78
2022/03/23 00:04:17;;;;;;;184.65;95.70;;;;;;;-2.42;100.00;102618.00;4991037;28;20065;-78
2022/03/23 00:06:45;;;;;;;194.73;100.10;;;;;;;-2.98;100.00;102618.97;4988471;28;20128;-79
2022/03/23 00:09:12;;;;;;;231.88;112.82;;;;;;;-2.91;100.00;102613.41;4982747;28;20050;-80
2022/03/23 00:11:39;;;;;;;256.23;115.75;;;;;;;-3.08;100.00;102611.59;4984714;28;20050;-79
2022/03/23 00:14:06;;;;;;;284.75;131.88;;;;;;;-2.48;100.00;102616.56;4987512;28;20042;-79
2022/03/23 00:16:35;;;;;;;286.45;121.97;;;;;;;-2.49;100.00;102614.03;4987095;28;20054;-78
2022/03/23 00:19:02;;;;;;;285.77;132.18;;;;;;;-2.85;100.00;102607.91;4983571;28;20110;-79
2022/03/23 00:21:30;;;;;;;318.25;135.60;;;;;;;-3.17;100.00;102611.19;4984477;28;20524;-80
2022/03/23 00:23:57;;;;;;;302.45;132.80;;;;;;;-3.14;100.00;102609.28;4986381;28;20400;-80
2022/03/23 00:26:24;;;;;;;324.42;145.70;;;;;;;-2.68;100.00;102614.91;4984099;28;20042;-79
2022/03/23 00:28:51;;;;;;;323.98;146.20;;;;;;;-2.77;100.00;102603.19;4985757;28;20083;-79
2022/03/23 00:31:20;;;;;;;350.77;151.07;;;;;;;-2.98;100.00;102605.97;4985698;28;20380;-78
2022/03/23 00:33:47;;;;;;;393.67;167.30;;;;;;;-3.14;100.00;102608.44;4993358;28;20038;-78
2022/03/23 00:36:15;;;;;;;404.58;179.10;;;;;;;-3.18;100.00;102610.31;4984595;28;20055;-79
2022/03/23 00:38:43;;;;;;;427.67;204.50;;;;;;;-3.07;100.00;102600.28;4993051;28;20069;-77
2022/03/23 00:41:10;;;;;;;410.05;187.63;;;;;;;-2.96;100.00;102604.16;4987380;28;20125;-78
2022/03/23 00:43:37;;;;;;;379.33;182.27;;;;;;;-3.24;100.00;102606.28;4987437;28;20132;-79
2022/03/23 00:46:04;;;;;;;352.80;159.70;;;;;;;-3.45;100.00;102604.63;4981430;28;20066;-79
2022/03/23 00:48:30;;;;;;;292.85;135.85;;;;;;;-3.34;100.00;102601.53;4992014;28;20046;-79
2022/03/23 00:50:58;;;;;;;238.90;119.60;;;;;;;-3.25;100.00;102604.56;4989531;28;20482;-80
2022/03/23 00:53:25;;;;;;;218.13;115.43;;;;;;;-3.12;100.00;102593.59;4988836;28;20046;-79
2022/03/23 00:55:53;;;;;;;172.70;100.57;;;;;;;-3.39;100.00;102606.09;4983740;28;20458;-80
2022/03/23 00:58:20;;;;;;;163.23;93.53;;;;;;;-3.20;100.00;102611.34;4988723;28;20058;-79
2022/03/23 01:00:47;;;;;;;162.13;101.60;;;;;;;-3.20;100.00;102603.53;4989483;28;20117;-79
2022/03/23 01:03:14;;;;;;;217.40;113.68;;;;;;;-3.00;100.00;102604.25;4984315;28;20145;-78
2022/03/23 01:05:41;;;;;;;218.70;118.03;;;;;;;-3.35;100.00;102598.09;4986890;28;20511;-79
2022/03/23 01:08:07;;;;;;;140.88;95.90;;;;;;;-3.29;100.00;102603.03;4993480;28;20108;-79
2022/03/23 01:10:35;;;;;;;120.25;83.35;;;;;;;-3.08;100.00;102605.56;4984290;28;20393;-78
2022/03/23 01:13:03;;;;;;;124.88;84.38;;;;;;;-3.04;100.00;102605.34;4989161;28;20129;-80
2022/03/23 01:15:30;;;;;;;171.10;94.13;;;;;;;-3.34;100.00;102599.78;4991522;28;20129;-79
2022/03/23 01:17:57;;;;;;;158.77;98.43;;;;;;;-3.17;100.00;102606.00;4990171;28;20468;-80
2022/03/23 01:20:24;;;;;;;145.60;97.32;;;;;;;-3.18;100.00;102614.69;4985786;28;20109;-77
2022/03/23 01:22:51;;;;;;;122.05;78.50;;;;;;;-3.28;100.00;102606.47;4984540;28;20510;-80
2022/03/23 01:25:19;;;;;;;139.95;83.75;;;;;;;-3.56;100.00;102601.69;4992179;28;20494;-79
2022/03/23 01:27:47;;;;;;;141.20;85.55;;;;;;;-3.84;100.00;102607.22;4988445;28;20043;-79
2022/03/23 01:30:17;;;;;;;123.45;73.97;;;;;;;-4.16;100.00;102602.50;4984345;28;20055;-79
2022/03/23 01:32:45;;;;;;;126.40;81.60;;;;;;;-3.89;100.00;102612.63;4987140;28;20046;-79
2022/03/23 01:35:13;;;;;;;136.05;82.70;;;;;;;-3.65;100.00;102605.53;4987720;28;20486;-80
2022/03/23 01:37:40;;;;;;;129.10;78.85;;;;;;;-3.56;100.00;102606.88;4987709;28;20462;-78
2022/03/23 01:40:09;;;;;;;131.25;79.82;;;;;;;-3.62;100.00;102607.16;4981767;28;20113;-80
2022/03/23 01:42:36;;;;;;;116.97;78.20;;;;;;;-3.80;100.00;102608.78;4981392;28;20055;-80
2022/03/23 01:45:04;;;;;;;93.07;68.32;;;;;;;-4.03;100.00;102607.16;4990562;28;20054;-79
2022/03/23 01:47:33;;;;;;;103.38;74.85;;;;;;;-3.80;100.00;102613.97;4982257;28;20108;-79
2022/03/23 01:50:00;;;;;;;112.97;80.75;;;;;;;-4.09;100.00;102608.25;4986009;28;20050;-78
2022/03/23 01:52:31;;;;;;;119.13;81.28;;;;;;;-3.86;100.00;102611.66;4984928;28;20101;-79
2022/03/23 01:54:57;;;;;;;115.15;78.00;;;;;;;-3.72;100.00;102612.75;4979549;28;20102;-82
2022/03/23 01:57:25;;;;;;;126.00;82.63;;;;;;;-4.09;100.00;102617.81;4983792;28;20058;-79
2022/03/23 01:59:52;;;;;;;119.70;81.55;;;;;;;-4.15;100.00;102622.34;4985688;28;20054;-80
2022/03/23 02:02:19;;;;;;;111.63;83.40;;;;;;;-3.81;100.00;102620.94;4988610;28;20535;-80
2022/03/23 02:04:48;;;;;;;70.90;63.28;;;;;;;-3.60;100.00;102616.56;4983829;28;20062;-79
2022/03/23 02:07:15;;;;;;;69.20;60.10;;;;;;;-3.66;100.00;102613.38;4980966;28;20491;-79
2022/03/23 02:09:42;;;;;;;75.07;67.53;;;;;;;-3.85;100.00;102615.91;4991177;28;20058;-80
2022/03/23 02:12:11;;;;;;;85.53;69.72;;;;;;;-3.92;100.00;102613.59;4982268;28;20066;-79
2022/03/23 02:14:38;;;;;;;89.95;63.75;;;;;;;-3.93;100.00;102613.66;4979821;28;20074;-80
2022/03/23 02:17:05;;;;;;;104.93;76.65;;;;;;;-4.34;100.00;102608.44;4988221;28;20128;-79
2022/03/23 02:19:32;;;;;;;97.03;67.70;;;;;;;-4.26;100.00;102609.00;4988706;28;20061;-77
2022/03/23 02:22:01;;;;;;;98.93;70.20;;;;;;;-4.25;100.00;102610.66;4979378;28;20066;-78
2022/03/23 02:24:29;;;;;;;91.40;64.45;;;;;;;-4.16;100.00;102612.88;4978121;28;20083;-78
2022/03/23 02:26:57;;;;;;;81.18;63.65;;;;;;;-4.28;100.00;102612.53;4982489;28;20455;-78
2022/03/23 02:29:26;;;;;;;71.82;63.30;;;;;;;-4.24;100.00;102612.34;4983640;28;20042;-78
2022/03/23 02:31:52;;;;;;;71.93;58.65;;;;;;;-4.33;100.00;102614.47;4988557;28;20475;-79
2022/03/23 02:34:19;;;;;;;77.63;60.72;;;;;;;-4.27;100.00;102620.25;4985155;28;20194;-79
2022/03/23 02:36:46;;;;;;;74.43;58.85;;;;;;;-4.46;100.00;102608.94;4982279;28;20042;-80
2022/03/23 02:39:14;;;;;;;68.70;60.80;;;;;;;-4.32;100.00;102614.44;4980018;28;20538;-79
2022/03/23 02:41:41;;;;;;;63.70;57.13;;;;;;;-4.49;100.00;102612.50;4988914;28;20051;-78
2022/03/23 02:44:08;;;;;;;61.88;55.65;;;;;;;-4.56;100.00;102616.28;4984717;28;20059;-79
2022/03/23 02:46:36;;;;;;;71.80;64.88;;;;;;;-4.27;100.00;102609.88;4990279;28;20129;-79
2022/03/23 02:49:03;;;;;;;65.57;58.75;;;;;;;-4.42;100.00;102611.38;4985444;28;20475;-78
2022/03/23 02:51:31;;;;;;;65.68;59.50;;;;;;;-4.40;100.00;102609.53;4979587;28;20058;-79
2022/03/23 03:02:29;;;;;;;76.38;61.30;;;;;;;-4.63;100.00;102601.84;5119479;23;20504;-78
2022/03/23 03:04:56;;;;;;;71.93;64.22;;;;;;;-4.73;100.00;102600.53;5024461;28;20084;-79
2022/03/23 03:07:23;;;;;;;82.03;66.78;;;;;;;-5.02;100.00;102609.44;5026333;28;20499;-79
2022/03/23 03:09:50;;;;;;;72.72;62.80;;;;;;;-4.81;100.00;102621.59;5025669;28;20108;-79
2022/03/23 03:12:19;;;;;;;74.30;66.20;;;;;;;-4.63;100.00;102607.91;5027548;28;20057;-78
2022/03/23 03:14:46;;;;;;;74.90;67.13;;;;;;;-4.74;100.00;102609.22;5032463;28;20057;-79
2022/03/23 03:17:12;;;;;;;73.05;65.97;;;;;;;-4.76;100.00;102611.03;5028450;28;20112;-80
2022/03/23 03:19:39;;;;;;;69.80;62.63;;;;;;;-4.91;100.00;102604.69;5025623;28;20058;-79
2022/03/23 03:22:06;;;;;;;75.57;67.57;;;;;;;-4.92;100.00;102610.78;5025746;28;20107;-79
2022/03/23 03:24:33;;;;;;;78.38;63.60;;;;;;;-4.90;100.00;102608.94;5019251;28;20062;-79
2022/03/23 03:26:59;;;;;;;67.00;57.72;;;;;;;-4.81;100.00;102611.22;5028102;28;20114;-78
2022/03/23 03:29:27;;;;;;;84.75;75.20;;;;;;;-5.02;100.00;102609.44;5029782;28;20057;-78
2022/03/23 03:31:54;;;;;;;79.07;71.03;;;;;;;-4.84;100.00;102611.34;5024269;28;20135;-79
2022/03/23 03:34:21;;;;;;;67.47;59.03;;;;;;;-4.85;100.00;102607.88;5021828;28;20561;-79
2022/03/23 03:36:48;;;;;;;79.63;62.05;;;;;;;-5.43;100.00;102611.84;5026276;28;20478;-79
2022/03/23 03:39:14;;;;;;;73.97;62.83;;;;;;;-5.36;100.00;102605.53;5024069;28;20111;-78
2022/03/23 03:41:41;;;;;;;85.32;70.13;;;;;;;-5.33;100.00;102611.44;5026096;28;20639;-79
2022/03/23 03:44:11;;;;;;;83.10;65.85;;;;;;;-5.57;100.00;102609.72;5030408;28;20394;-79
2022/03/23 03:46:40;;;;;;;87.30;62.63;;;;;;;-5.33;100.00;102603.66;5024795;28;20111;-78
2022/03/23 03:49:07;;;;;;;71.80;58.00;;;;;;;-5.12;100.00;102599.41;5027982;28;20073;-79
2022/03/23 03:51:34;;;;;;;73.75;59.03;;;;;;;-5.06;100.00;102604.38;5028621;28;20049;-80
2022/03/23 03:54:01;;;;;;;74.93;65.25;;;;;;;-5.03;100.00;102616.38;5017428;28;20050;-79
2022/03/23 03:56:28;;;;;;;69.03;61.53;;;;;;;-5.08;100.00;102607.94;5028876;28;20057;-78
2022/03/23 03:58:54;;;;;;;77.63;62.20;;;;;;;-5.26;100.00;102614.66;5031952;28;20053;-79
2022/03/23 04:01:21;;;;;;;78.25;69.68;;;;;;;-5.27;100.00;102609.53;5031041;28;20131;-78
2022/03/23 04:03:50;;;;;;;94.32;68.63;;;;;;;-5.17;100.00;102627.25;5025537;28;20132;-80
2022/03/23 04:06:17;;;;;;;97.63;78.03;;;;;;;-5.44;100.00;102618.78;5029874;28;20061;-78
2022/03/23 04:08:43;;;;;;;67.13;59.90;;;;;;;-5.92;100.00;102622.19;5017329;28;20517;-79
2022/03/23 04:11:10;;;;;;;61.88;55.78;;;;;;;-5.82;100.00;102620.13;5027506;28;20049;-79
2022/03/23 04:13:37;;;;;;;61.25;54.92;;;;;;;-5.56;100.00;102624.38;5029714;28;20091;-77
2022/03/23 04:16:04;;;;;;;57.00;50.83;;;;;;;-5.43;100.00;102630.81;5026918;28;20061;-79
2022/03/23 04:18:31;;;;;;;65.78;53.00;;;;;;;-5.49;100.00;102625.84;5019431;28;20116;-79
2022/03/23 04:20:59;;;;;;;58.20;52.08;;;;;;;-5.40;100.00;102624.69;5024547;28;20460;-79
2022/03/23 04:23:26;;;;;;;83.40;62.85;;;;;;;-5.40;100.00;102620.34;5028331;28;20594;-79
2022/03/23 04:25:52;;;;;;;92.63;67.38;;;;;;;-5.26;100.00;102619.84;5028415;28;20050;-79
2022/03/23 04:28:20;;;;;;;83.78;61.05;;;;;;;-5.04;100.00;102612.09;5029442;28;20476;-79
2022/03/23 04:30:47;;;;;;;70.32;57.92;;;;;;;-5.42;100.00;102622.13;5027273;28;20053;-79
2022/03/23 04:33:14;;;;;;;71.20;61.45;;;;;;;-5.17;100.00;102621.25;5028748;28;20053;-79
2022/03/23 04:35:41;;;;;;;74.28;58.55;;;;;;;-5.06;100.00;102613.88;5025747;28;20059;-81
2022/03/23 04:38:10;;;;;;;82.88;64.93;;;;;;;-5.03;100.00;102616.38;5024617;28;20041;-79
2022/03/23 04:40:36;;;;;;;102.97;69.28;;;;;;;-5.08;100.00;102628.66;5024914;28;20124;-81
2022/03/23 04:43:04;;;;;;;84.95;61.45;;;;;;;-5.66;100.00;102621.25;5031434;28;20057;-79
2022/03/23 04:45:31;;;;;;;86.78;62.00;;;;;;;-5.61;100.00;102624.53;5024367;28;20050;-80
2022/03/23 04:47:58;;;;;;;73.57;58.60;;;;;;;-5.42;100.00;102624.72;5025522;28;20567;-79
2022/03/23 04:50:25;;;;;;;79.07;59.15;;;;;;;-5.00;100.00;102624.03;5022378;28;20058;-78
2022/03/23 04:52:52;;;;;;;65.40;52.95;;;;;;;-4.99;100.00;102627.44;5034575;28;20497;-78
2022/03/23 04:55:21;;;;;;;73.25;56.10;;;;;;;-4.59;100.00;102618.16;5029312;28;20053;-79
2022/03/23 04:57:48;;;;;;;97.25;63.22;;;;;;;-4.34;100.00;102618.81;5025048;28;20045;-78
2022/03/23 05:00:17;;;;;;;89.60;61.60;;;;;;;-4.10;100.00;102627.34;5024891;28;20075;-79
2022/03/23 05:02:45;;;;;;;81.70;60.20;;;;;;;-4.18;100.00;102632.84;5021636;28;20468;-78
2022/03/23 05:05:13;;;;;;;81.10;59.65;;;;;;;-4.04;100.00;102627.09;5027470;28;20042;-79
2022/03/23 05:07:40;;;;;;;74.68;63.80;;;;;;;-4.00;100.00;102628.63;5024157;28;20046;-78
2022/03/23 05:10:08;;;;;;;88.18;64.43;;;;;;;-3.95;100.00;102637.09;5021118;28;20057;-78
2022/03/23 05:12:37;;;;;;;77.05;64.15;;;;;;;-3.96;100.00;102635.41;5026122;28;20489;-79
2022/03/23 05:15:04;;;;;;;79.07;61.63;;;;;;;-3.84;100.00;102639.25;5025006;28;20528;-81
2022/03/23 05:17:31;;;;;;;77.28;61.60;;;;;;;-3.63;100.00;102637.47;5022162;28;20532;-80
2022/03/23 05:19:58;;;;;;;77.78;61.40;;;;;;;-3.38;100.00;102637.22;5026883;28;20103;-79
2022/03/23 05:22:25;;;;;;;85.82;61.35;;;;;;;-3.43;100.00;102646.97;5025491;28;20081;-78
2022/03/23 05:24:52;;;;;;;89.22;60.80;;;;;;;-3.16;100.00;102657.06;5029967;28;20437;-79
2022/03/23 05:27:20;;;;;;;75.10;62.15;;;;;;;-3.04;100.00;102648.69;5021325;28;20056;-78
2022/03/23 05:29:48;;;;;;;83.15;62.33;;;;;;;-2.78;100.00;102652.69;5024148;28;20050;-80
2022/03/23 05:32:17;;;;;;;80.40;57.55;;;;;;;-2.72;100.00;102655.00;5026018;28;20123;-80
2022/03/23 05:34:45;;;;;;;65.57;55.33;;;;;;;-2.46;100.00;102652.91;5026105;28;20049;-80
2022/03/23 05:37:12;;;;;;;60.67;54.30;;;;;;;-2.57;100.00;102661.25;5028257;28;20053;-79
2022/03/23 05:39:39;;;;;;;64.15;55.65;;;;;;;-2.36;100.00;102652.41;4984266;28;20406;-79
2022/03/23 05:42:06;;;;;;;60.88;52.78;;;;;;;-2.35;100.00;102654.09;5003034;28;20466;-79
2022/03/23 05:44:33;;;;;;;57.65;51.53;;;;;;;-1.99;100.00;102661.00;5002484;28;20053;-77
2022/03/23 05:47:01;;;;;;;56.20;50.30;;;;;;;-2.15;100.00;102660.06;5004478;28;20054;-79
2022/03/23 05:49:28;;;;;;;62.05;55.50;;;;;;;-1.80;100.00;102662.69;5009762;28;20045;-79
2022/03/23 05:51:55;;;;;;;66.65;59.60;;;;;;;-1.53;100.00;102661.25;4994657;28;20125;-79
2022/03/23 05:54:22;;;;;;;73.47;65.57;;;;;;;-2.21;100.00;102652.56;4997684;28;20046;-78
2022/03/23 05:56:49;;;;;;;81.18;72.35;;;;;;;-1.97;100.00;102656.53;5005338;28;20108;-80
2022/03/23 05:59:16;;;;;;;86.28;77.57;;;;;;;-1.04;100.00;102666.47;5004394;28;20105;-79
2022/03/23 06:01:43;;;;;;;88.30;79.15;;;;;;;-0.73;100.00;102664.81;5007740;28;20059;-79
2022/03/23 06:04:12;;;;;;;92.68;83.07;;;;;;;-0.57;100.00;102668.25;5005449;28;20124;-81
2022/03/23 06:06:38;;;;;;;95.43;85.63;;;;;;;-0.33;100.00;102662.59;5005414;28;20058;-76
2022/03/23 06:09:05;;;;;;;88.35;79.32;;;;;;;-0.18;100.00;102669.53;4996686;28;20050;-79
2022/03/23 06:11:32;;;;;;;92.47;82.95;;;;;;;0.13;100.00;102667.75;5002764;28;20546;-79
2022/03/23 06:13:59;;;;;;;88.05;79.47;;;;;;;0.09;100.00;102659.28;5006488;28;20112;-79
2022/03/23 06:16:25;;;;;;;86.55;78.30;;;;;;;0.30;100.00;102666.75;5005255;28;20457;-79
2022/03/23 06:18:52;;;;;;;90.20;81.13;;;;;;;0.55;100.00;102664.34;5001498;28;20486;-78
2022/03/23 06:21:20;;;;;;;88.18;79.18;;;;;;;0.91;100.00;102660.44;5004594;28;20058;-79
2022/03/23 06:23:47;;;;;;;86.43;77.35;;;;;;;1.17;100.00;102656.16;5010322;28;20049;-79
2022/03/23 06:26:14;;;;;;;85.88;77.70;;;;;;;1.42;100.00;102654.59;5006918;28;20446;-81
2022/03/23 06:28:41;;;;;;;86.55;77.90;;;;;;;1.36;100.00;102653.19;5003607;28;20062;-79
2022/03/23 06:31:07;;;;;;;88.70;80.18;;;;;;;1.68;100.00;102652.91;5003223;28;20136;-78
2022/03/23 06:33:34;;;;;;;86.97;78.85;;;;;;;1.92;100.00;102653.06;5000216;28;20049;-78
2022/03/23 06:36:01;;;;;;;83.95;75.43;;;;;;;2.27;100.00;102653.34;5008130;28;20104;-79
2022/03/23 06:38:30;;;;;;;83.90;75.25;;;;;;;2.51;100.00;102656.91;5010258;28;20053;-79
2022/03/23 06:40:57;;;;;;;83.55;75.95;;;;;;;2.97;100.00;102652.84;5012083;28;20045;-79
2022/03/23 06:43:25;;;;;;;83.05;75.68;;;;;;;3.57;100.00;102644.09;5004539;28;20069;-79
2022/03/23 06:45:51;;;;;;;82.72;75.43;;;;;;;3.47;100.00;102647.50;5005004;28;20064;-78
2022/03/23 06:48:18;;;;;;;85.63;77.75;;;;;;;3.76;100.00;102640.94;5005769;28;20468;-79
2022/03/23 06:50:45;;;;;;;86.55;78.20;;;;;;;3.66;100.00;102635.53;5008322;28;20045;-79
2022/03/23 06:53:12;;;;;;;85.68;78.18;;;;;;;4.59;100.00;102635.44;5014709;28;20050;-79
2022/03/23 06:55:40;;;;;;;88.07;80.15;;;;;;;5.26;100.00;102633.69;5008598;28;20461;-79
2022/03/23 06:58:06;;;;;;;85.05;77.97;;;;;;;4.59;100.00;102632.81;5012784;28;20046;-78
2022/03/23 07:00:33;;;;;;;78.93;72.15;;;;;;;4.01;100.00;102641.72;5007193;28;20042;-79
2022/03/23 07:03:00;;;;;;;81.15;73.57;;;;;;;4.51;100.00;102635.22;5008259;28;20066;-79
2022/03/23 07:05:27;;;;;;;86.53;78.68;;;;;;;5.50;100.00;102638.75;5007719;28;20058;-78
2022/03/23 07:10:39;;;;;;;85.95;78.55;;;;;;;5.21;100.00;102636.69;5012847;28;20128;-78
2022/03/23 07:13:06;;;;;;;83.07;76.05;;;;;;;5.11;100.00;102630.47;5009710;28;20050;-80
2022/03/23 07:15:33;;;;;;;89.63;82.07;;;;;;;5.37;100.00;102624.91;5006003;28;20116;-79
2022/03/23 07:18:00;;;;;;;86.28;78.40;;;;;;;5.41;100.00;102632.44;5008841;28;20499;-79
2022/03/23 07:20:27;;;;;;;81.50;73.78;;;;;;;5.76;100.00;102627.88;5016198;28;20065;-78
2022/03/23 07:22:54;;;;;;;78.82;72.22;;;;;;;5.24;100.00;102635.63;5009304;28;20050;-79
2022/03/23 07:25:21;;;;;;;76.63;70.13;;;;;;;5.45;100.00;102633.03;5010698;28;20045;-78
2022/03/23 07:27:49;;;;;;;81.00;74.20;;;;;;;5.88;100.00;102632.13;5012478;28;20111;-78
2022/03/23 07:30:16;;;;;;;83.25;75.70;;;;;;;6.14;100.00;102630.81;5015226;28;20045;-77
2022/03/23 07:32:43;;;;;;;75.68;69.18;;;;;;;6.45;100.00;102633.47;5013256;28;20112;-79
2022/03/23 07:35:10;;;;;;;77.97;71.03;;;;;;;7.20;100.00;102626.00;5009900;28;20438;-78
2022/03/23 07:37:37;;;;;;;80.20;73.35;;;;;;;6.71;100.00;102628.53;5009024;28;20054;-79
2022/03/23 07:40:05;;;;;;;79.72;73.32;;;;;;;6.81;100.00;102628.59;5012423;28;20046;-81
2022/03/23 07:42:31;;;;;;;83.78;76.75;;;;;;;7.70;100.00;102618.81;5009534;28;20387;-77
2022/03/23 07:44:59;;;;;;;87.05;79.00;;;;;;;6.30;95.75;102616.31;5008379;28;20050;-82
2022/03/23 07:47:26;;;;;;;78.43;71.72;;;;;;;6.81;98.38;102620.69;5009983;28;20077;-78
2022/03/23 07:49:53;;;;;;;83.53;75.47;;;;;;;8.76;94.78;102618.66;5013444;28;20038;-80
2022/03/23 07:52:20;;;;;;;86.55;78.78;;;;;;;8.47;85.69;102614.31;5010434;28;20437;-81
2022/03/23 07:54:47;;;;;;;87.15;80.07;;;;;;;7.45;85.08;102616.75;5015413;28;20057;-78
2022/03/23 07:57:14;;;;;;;80.22;73.03;;;;;;;8.57;88.34;102615.13;5006876;28;20050;-78
2022/03/23 07:59:41;;;;;;;81.07;74.03;;;;;;;9.22;79.42;102606.22;5001659;28;20047;-78
2022/03/23 08:02:09;;;;;;;91.30;82.72;;;;;;;8.62;79.61;102612.03;5009643;28;20062;-78
2022/03/23 08:04:36;;;;;;;89.25;80.85;;;;;;;8.74;76.68;102616.16;5010424;28;20054;-79
2022/03/23 08:07:03;;;;;;;82.32;75.00;;;;;;;8.92;74.83;102610.88;5008013;28;20116;-79
2022/03/23 08:09:30;;;;;;;86.47;78.53;;;;;;;10.08;71.07;102604.59;5015318;28;20045;-77
2022/03/23 08:11:57;;;;;;;87.63;80.03;;;;;;;8.22;68.28;102595.44;5008824;28;20549;-78
2022/03/23 08:14:24;;;;;;;88.05;80.05;;;;;;;9.51;72.65;102598.88;5009041;28;20042;-81
2022/03/23 08:16:52;;;;;;;86.90;78.75;;;;;;;8.23;68.22;102597.13;5008272;28;20141;-77
2022/03/23 08:19:21;;;;;;;78.50;71.18;;;;;;;9.33;73.86;102596.25;5014633;28;20508;-78
2022/03/23 08:21:49;;;;;;;78.63;71.85;;;;;;;10.80;70.49;102598.16;5010932;28;20077;-81
2022/03/23 08:24:15;;;;;;;82.10;74.78;;;;;;;11.52;63.14;102593.94;5018481;28;20470;-78
2022/03/23 08:26:42;;;;;;;88.78;80.38;;;;;;;11.31;63.68;102594.44;5008037;28;20046;-81
2022/03/23 08:29:09;;;;;;;80.90;73.93;;;;;;;10.12;64.24;102591.03;5007494;28;20062;-77
2022/03/23 08:31:36;;;;;;;76.30;69.88;;;;;;;11.11;56.81;102590.44;5005829;28;20054;-79
2022/03/23 08:34:04;;;;;;;84.13;77.22;;;;;;;10.54;52.73;102589.25;5002582;28;20112;-79
2022/03/23 08:36:33;;;;;;;86.28;78.57;;;;;;;10.58;51.36;102586.28;5013002;28;20054;-77
2022/03/23 08:39:00;;;;;;;79.18;72.78;;;;;;;10.98;52.17;102583.75;5011190;28;20050;-79
2022/03/23 08:41:27;;;;;;;84.53;77.85;;;;;;;11.13;52.70;102583.94;5007518;28;20077;-78
2022/03/23 08:43:54;;;;;;;87.25;80.13;;;;;;;11.13;49.35;102567.97;5000165;28;20462;-79
2022/03/23 08:46:21;;;;;;;84.15;77.07;;;;;;;11.47;46.78;102567.03;5010198;28;20477;-80
2022/03/23 08:48:49;;;;;;;78.60;72.28;;;;;;;12.07;48.40;102581.75;5010915;28;20452;-79
2022/03/23 08:51:15;;;;;;;78.82;71.93;;;;;;;12.44;46.99;102569.66;5003189;28;20077;-81
2022/03/23 08:53:44;;;;;;;79.53;72.50;;;;;;;11.63;51.18;102571.50;5018153;28;20116;-79
2022/03/23 08:56:11;;;;;;;81.90;75.20;;;;;;;12.43;47.88;102568.81;5010027;28;20431;-77
2022/03/23 08:58:38;;;;;;;87.95;80.60;;;;;;;12.34;48.11;102567.19;5008563;28;20418;-78
2022/03/23 09:01:05;;;;;;;88.85;81.45;;;;;;;13.11;44.93;102566.44;5001574;28;20046;-79
2022/03/23 09:03:32;;;;;;;79.13;72.78;;;;;;;12.58;43.83;102561.75;5010582;28;20061;-79
2022/03/23 09:05:59;;;;;;;80.97;74.43;;;;;;;12.97;44.24;102562.69;5009013;28;20046;-79
2022/03/23 09:08:26;;;;;;;82.30;75.30;;;;;;;12.91;45.62;102553.56;5004473;28;20078;-79
2022/03/23 09:10:54;;;;;;;85.28;78.28;;;;;;;13.72;44.31;102552.09;5004046;28;20104;-80
2022/03/23 09:13:21;;;;;;;85.72;78.63;;;;;;;12.50;45.33;102555.66;5014636;28;20054;-78
2022/03/23 09:15:48;;;;;;;80.18;73.07;;;;;;;12.80;45.26;102551.31;5007763;28;20103;-79
2022/03/23 09:18:15;;;;;;;79.85;72.97;;;;;;;12.94;43.81;102542.53;5004774;28;20138;-78
2022/03/23 09:20:42;;;;;;;76.30;69.70;;;;;;;14.20;41.93;102551.75;5012311;28;20045;-78
2022/03/23 09:23:09;;;;;;;81.72;74.85;;;;;;;12.52;46.36;102542.97;5013534;28;20050;-79
2022/03/23 09:25:36;;;;;;;77.28;70.88;;;;;;;14.92;45.24;102536.78;5011308;28;20068;-79
2022/03/23 09:28:04;;;;;;;78.25;71.95;;;;;;;14.96;42.46;102536.22;5006660;28;20371;-79
2022/03/23 09:30:31;;;;;;;79.03;72.57;;;;;;;13.76;41.47;102523.19;5004230;28;20112;-78
2022/03/23 09:32:58;;;;;;;88.85;81.55;;;;;;;13.71;40.60;102528.28;5008023;28;20053;-78
2022/03/23 09:35:25;;;;;;;89.05;80.78;;;;;;;13.42;44.19;102521.84;5010744;28;20453;-78
2022/03/23 09:37:52;;;;;;;84.45;77.38;;;;;;;13.37;44.22;102518.88;5012300;28;20084;-78
2022/03/23 09:40:24;;;;;;;86.53;79.75;;;;;;;14.63;41.13;102525.16;5014624;28;20046;-79
2022/03/23 09:42:51;;;;;;;78.88;72.68;;;;;;;14.63;40.64;102519.81;5017683;28;20046;-77
2022/03/23 09:48:01;;;;;;;85.15;78.22;;;;;;;15.40;41.29;102497.69;5006724;28;20053;-77
2022/03/23 09:50:29;;;;;;;83.28;76.57;;;;;;;16.14;39.70;102512.38;5008455;28;20129;-77
2022/03/23 09:52:57;;;;;;;83.60;76.60;;;;;;;13.24;43.46;102506.13;5019412;28;20438;-77
2022/03/23 09:55:24;;;;;;;75.22;69.10;;;;;;;14.17;39.88;102506.72;5013491;28;20050;-78
2022/03/23 09:57:55;;;;;;;76.82;70.35;;;;;;;14.36;40.30;102508.78;5011847;28;20572;-79
2022/03/23 10:00:23;;;;;;;76.55;70.45;;;;;;;16.64;39.08;102502.22;5011737;28;20099;-78
2022/03/23 10:03:29;;;;;;;82.38;75.90;;;;;;;15.65;37.58;102495.38;5011259;28;20081;-77
2022/03/23 10:06:26;;;;;;;86.85;78.75;;;;;;;14.51;39.58;102499.91;4991270;28;20097;-77
2022/03/23 10:09:26;;;;;;;89.78;81.25;;;;;;;15.03;40.33;102486.25;5011748;28;20054;-80
2022/03/23 10:12:32;;;;;;;78.88;72.82;;;;;;;16.37;37.27;102483.41;5008020;28;20057;-79
2022/03/23 10:16:01;;;;;;;81.35;75.43;;;;;;;15.14;39.60;102482.25;5000825;28;20045;-80
2022/03/23 10:18:54;;;;;;;84.22;78.22;;;;;;;15.91;37.54;102473.28;5009805;28;20050;-79
2022/03/23 10:21:22;;;;;;;73.13;67.80;;;;;;;16.18;35.48;102460.81;4995828;28;20144;-79
2022/03/23 10:24:24;;;;;;;73.70;68.00;;;;;;;16.29;35.41;102447.88;5016530;28;20493;-78
2022/03/23 10:26:51;;;;;;;78.10;72.13;;;;;;;15.18;39.02;102438.00;5008394;28;20471;-79
2022/03/23 10:29:22;;;;;;;79.10;73.38;;;;;;;15.33;40.03;102448.59;5008921;28;20120;-79
2022/03/23 10:32:00;;;;;;;78.45;72.72;;;;;;;13.79;41.31;102452.56;5012309;28;20112;-79
2022/03/23 10:34:48;;;;;;;83.65;77.68;;;;;;;15.05;37.29;102440.59;5000949;28;20069;-77
2022/03/23 10:37:17;;;;;;;81.07;75.10;;;;;;;16.45;34.72;102429.56;5002742;28;20054;-79
2022/03/23 10:39:44;;;;;;;84.03;77.32;;;;;;;15.53;37.76;102438.88;5012565;28;20058;-78
2022/03/23 10:42:15;;;;;;;78.22;72.13;;;;;;;15.91;33.68;102429.59;5008464;28;20053;-77
2022/03/23 10:44:42;;;;;;;77.50;71.50;;;;;;;16.03;33.84;102420.78;5004674;28;20444;-77
2022/03/23 10:47:21;;;;;;;77.05;71.30;;;;;;;15.33;35.62;102405.78;5015061;28;20116;-80
2022/03/23 10:49:49;;;;;;;81.05;75.20;;;;;;;14.98;37.79;102404.94;5011026;28;20105;-79
2022/03/23 10:52:18;;;;;;;76.65;70.68;;;;;;;14.70;34.02;102394.19;5014011;28;20132;-79
2022/03/23 10:54:55;;;;;;;79.57;73.57;;;;;;;15.97;33.52;102404.69;5010843;28;20104;-84
2022/03/23 10:57:45;;;;;;;81.25;75.43;;;;;;;15.36;35.13;102392.00;5005096;28;20128;-79
2022/03/23 11:00:16;;;;;;;77.47;71.50;;;;;;;16.94;33.87;102392.69;5009111;28;20052;-81
2022/03/23 11:02:46;;;;;;;72.00;66.22;;;;;;;15.32;35.25;102375.50;5013836;28;20113;-78
2022/03/23 11:05:31;;;;;;;79.03;73.03;;;;;;;15.46;35.23;102367.53;5005936;28;20433;-81
2022/03/23 11:08:06;;;;;;;80.85;74.72;;;;;;;15.85;36.22;102374.94;5010272;28;20106;-78
2022/03/23 11:16:06;;;;;;;70.57;64.95;;;;;;;16.67;32.84;102347.06;5007598;28;20093;-77
2022/03/23 11:18:33;;;;;;;70.75;65.25;;;;;;;17.51;31.40;102350.00;5008315;28;20053;-76
2022/03/23 11:21:01;;;;;;;70.15;64.70;;;;;;;16.11;34.51;102338.56;5015470;28;20054;-78
2022/03/23 11:23:30;;;;;;;78.53;72.65;;;;;;;19.02;31.13;102332.25;5007224;28;20459;-78
2022/03/23 11:25:59;;;;;;;78.13;72.38;;;;;;;15.42;36.29;102336.84;5009404;28;20475;-79
2022/03/23 11:28:28;;;;;;;87.07;80.65;;;;;;;17.08;30.00;102329.91;5017036;28;20524;-78
2022/03/23 11:30:56;;;;;;;80.60;74.65;;;;;;;17.81;28.60;102320.75;5008860;28;20529;-77